INFORMACIÓN METAR y TAF
METAR FOR ENGM
ADDS - METARS form results

(1827 UTC 28 May 2020)
Data provider http://aviationweather.gov/metar/data/
 
METAR text: ENGM 281820Z 03003KT 350V110 CAVOK 16/M00 Q1029 NOSIG
Conditions at: ENGM (OSLO/GARDERMOEN , NO) observed 1820 UTC 28 May 2020
Temperature: 16.0°C (61°F)
Dewpoint: 0.0°C (32°F) [RH = 34%]
Pressure (altimeter): 30.38 inches Hg (1029.0 mb)
Winds: from the NNE (30 degrees) at 3 MPH (3 knots; 1.5 m/s)
Visibility: 6 or more miles (10+ km)
Ceiling: ceiling and visibility are OK
Clouds: unknown
Weather: no significant weather observed at this time

METAR text: ENGM 281750Z 03004KT 340V090 CAVOK 17/M00 Q1029 NOSIG
Conditions at: ENGM (OSLO/GARDERMOEN , NO) observed 1750 UTC 28 May 2020
Temperature: 17.0°C (63°F)
Dewpoint: 0.0°C (32°F) [RH = 32%]
Pressure (altimeter): 30.38 inches Hg (1029.0 mb)
Winds: from the NNE (30 degrees) at 5 MPH (4 knots; 2.1 m/s)
Visibility: 6 or more miles (10+ km)
Ceiling: ceiling and visibility are OK
Clouds: unknown
Weather: no significant weather observed at this time

Forecast for: ENGM (OSLO/GARDERMOEN , NO)
Text: TAF ENGM 2818/2918 VRB05KT CAVOK
Forecast period: 1800 UTC 28 May 2020 to 1800 UTC 29 May 2020
Forecast type: FROM: standard forecast or significant change
Winds: variable direction winds at 6 MPH (5 knots; 2.6 m/s)
Visibility: 6 or more miles 10+ km)
Ceiling: unknown
Clouds: missing
Weather: NSW  (no significant weather)

 MAPA DE AEROPUERTO

 INFORMACIÓN DE PISTA
Pista 01L Longitud 11811 ft Ancho 148 ft
Elevación 656 ft Umbral desplazado 0 ft Rumbo de pista 16
Pista 19R Longitud 11811 ft Ancho 148 ft
Elevación 675 ft Umbral desplazado 0 ft Rumbo de pista 196
Pista 01R Longitud 9678 ft Ancho 148 ft
Elevación 670 ft Umbral desplazado 0 ft Rumbo de pista 16
Pista 19L Longitud 9678 ft Ancho 148 ft
Elevación 681 ft Umbral desplazado 0 ft Rumbo de pista 196

 FRECUANCIAS DEL AEROPUERTO
Tipo APP Nombre APP Frecuencia 119.975 MHZ
Tipo ATIS Nombre ATIS Frecuencia 126.125 MHZ
Tipo CLD Nombre CLNC DEL Frecuencia 121.6 MHZ
Tipo DIR Nombre DIRECTOR Frecuencia 131.35 MHZ
Tipo GND Nombre GND Frecuencia 121.925 MHZ
Tipo MISC Nombre DE ICING Frecuencia 131.975 MHZ
Tipo OPS Nombre WINGOPS Frecuencia 29.38 MHZ
Tipo PMSV Nombre PMSV METRO Frecuencia 134.175 MHZ
Tipo TWR Nombre TWR Frecuencia 118.3 MHZ

 RADIO AYUDAS DEL AEROPUERTO
Tipo NDB Nombre Bergerud Frecuencia 316 KHZ
Tipo VOR-DME Nombre Gardermoen Frecuencia 115950 KHZ
Tipo NDB Nombre Oppaker Frecuencia 334 KHZ
Tipo NDB Nombre Solberg Frecuencia 414 KHZ
Tipo NDB Nombre Soknen Frecuencia 387 KHZ